Artesia, New Mexico
Current Conditions -  °F | °C
As of 4:35 AM on Sunday 21 Dec 2014 (Local Time) from KATS Reporting Station
Clear Clear  
Wind Chill: -2°   Ceiling: Unl
Heat Index:   Visibility: 10mi
Dew Point: -4°   Wind: 6mph
Humidity: 70%   Direction: 180°S
Pressure: 29.98"   Gusts: NA
Location:  32.84°N, 104.39°W
Report Text: KATS 211135Z AUTO 18005KT 10SM CLR 01/M04 A2998 RMK AO2
Loading
Personal Weather Stations






























Interactive Weather Map New forecast layout! Learn more

10-Day Weather Forecast

Advertisements
Track Severe Weather on mobile